FRS28 EDRK-EDKM
Flight info
| Callsign | FRS28 |
|---|---|
| Flight time | 0h 27m |
| Altitude | 2500 |
| Route | DIRECT |
| Aircraft | PA44/L-V/N |
Departure
| Time | 2026-04-25 13:54 |
|---|---|
| Airport | Koblenz-Winningen Airfield (EDRK) |
Arrival
| Time | 2026-04-25 14:22 |
|---|---|
| Airport | Meschede-Schüren Airfield (EDKM) |
| Time | Latitude | Longitude | Altitude | Speed | Heading |
|---|---|---|---|---|---|
| 2026-04-25 13:47 | 50.32420 | 7.52835 | 669 ft | 0 kts | 146° |
| 2026-04-25 13:50 | 50.32436 | 7.52858 | 672 ft | 4 kts | 327° |
| 2026-04-25 13:51 | 50.32436 | 7.52857 | 672 ft | 0 kts | 326° |
| 2026-04-25 13:52 | 50.32439 | 7.52807 | 672 ft | 10 kts | 236° |
| 2026-04-25 13:52 | 50.32397 | 7.52711 | 672 ft | 11 kts | 235° |
| 2026-04-25 13:52 | 50.32356 | 7.52614 | 672 ft | 11 kts | 234° |
| 2026-04-25 13:52 | 50.32315 | 7.52520 | 672 ft | 11 kts | 237° |
| 2026-04-25 13:53 | 50.32280 | 7.52415 | 672 ft | 12 kts | 255° |
| 2026-04-25 13:53 | 50.32296 | 7.52315 | 672 ft | 1 kts | 323° |
| 2026-04-25 13:53 | 50.32302 | 7.52308 | 671 ft | 4 kts | 324° |
| 2026-04-25 13:54 | 50.32366 | 7.52412 | 672 ft | 40 kts | 56° |
| 2026-04-25 13:54 | 50.32587 | 7.53016 | 784 ft | 74 kts | 58° |
| 2026-04-25 13:54 | 50.32875 | 7.53819 | 1070 ft | 87 kts | 49° |
| 2026-04-25 13:54 | 50.33267 | 7.54511 | 1500 ft | 88 kts | 48° |
| 2026-04-25 13:55 | 50.33739 | 7.55240 | 1738 ft | 104 kts | 31° |
| 2026-04-25 13:55 | 50.34358 | 7.55979 | 1923 ft | 120 kts | 32° |
| 2026-04-25 13:55 | 50.35046 | 7.56846 | 2111 ft | 131 kts | 34° |
| 2026-04-25 13:55 | 50.35766 | 7.57768 | 2325 ft | 138 kts | 35° |
| 2026-04-25 13:56 | 50.36522 | 7.58716 | 2477 ft | 142 kts | 34° |
| 2026-04-25 13:56 | 50.37291 | 7.59688 | 2518 ft | 146 kts | 34° |
| 2026-04-25 13:56 | 50.38124 | 7.60705 | 2506 ft | 154 kts | 33° |
| 2026-04-25 13:56 | 50.38957 | 7.61762 | 2504 ft | 153 kts | 35° |
| 2026-04-25 13:57 | 50.39765 | 7.62808 | 2498 ft | 154 kts | 34° |
| 2026-04-25 13:57 | 50.40306 | 7.63512 | 2501 ft | 151 kts | 36° |
| 2026-04-25 13:57 | 50.41408 | 7.64975 | 2479 ft | 157 kts | 37° |
| 2026-04-25 13:57 | 50.42253 | 7.65924 | 2505 ft | 149 kts | 27° |
| 2026-04-25 13:58 | 50.43135 | 7.66774 | 2524 ft | 150 kts | 27° |
| 2026-04-25 13:58 | 50.44039 | 7.67659 | 2489 ft | 156 kts | 27° |
| 2026-04-25 13:58 | 50.44934 | 7.68553 | 2523 ft | 150 kts | 30° |
| 2026-04-25 13:58 | 50.45840 | 7.69452 | 2483 ft | 156 kts | 27° |
| 2026-04-25 13:59 | 50.46726 | 7.70347 | 2501 ft | 148 kts | 28° |
| 2026-04-25 13:59 | 50.47588 | 7.71220 | 2494 ft | 149 kts | 27° |
| 2026-04-25 13:59 | 50.48455 | 7.72097 | 2504 ft | 148 kts | 27° |
| 2026-04-25 13:59 | 50.49320 | 7.72978 | 2507 ft | 147 kts | 27° |
| 2026-04-25 14:00 | 50.49899 | 7.73558 | 2523 ft | 150 kts | 26° |
| 2026-04-25 14:00 | 50.51071 | 7.74737 | 2504 ft | 149 kts | 29° |
| 2026-04-25 14:00 | 50.51964 | 7.75629 | 2491 ft | 151 kts | 26° |
| 2026-04-25 14:00 | 50.52848 | 7.76516 | 2502 ft | 151 kts | 27° |
| 2026-04-25 14:01 | 50.53722 | 7.77410 | 2496 ft | 148 kts | 27° |
| 2026-04-25 14:01 | 50.54601 | 7.78291 | 2500 ft | 153 kts | 27° |
| 2026-04-25 14:01 | 50.55506 | 7.79190 | 2493 ft | 152 kts | 27° |
| 2026-04-25 14:01 | 50.56382 | 7.80088 | 2489 ft | 148 kts | 28° |
| 2026-04-25 14:02 | 50.57261 | 7.80989 | 2500 ft | 154 kts | 28° |
| 2026-04-25 14:02 | 50.58179 | 7.81890 | 2483 ft | 158 kts | 28° |
| 2026-04-25 14:02 | 50.59081 | 7.82814 | 2491 ft | 150 kts | 29° |
| 2026-04-25 14:02 | 50.59364 | 7.83109 | 2486 ft | 149 kts | 28° |
| 2026-04-25 14:03 | 50.60870 | 7.84401 | 2488 ft | 147 kts | 14° |
| 2026-04-25 14:03 | 50.61815 | 7.84920 | 2496 ft | 145 kts | 15° |
| 2026-04-25 14:03 | 50.62782 | 7.85466 | 2485 ft | 149 kts | 14° |
| 2026-04-25 14:03 | 50.63747 | 7.85986 | 2490 ft | 146 kts | 15° |
| 2026-04-25 14:04 | 50.64717 | 7.86529 | 2489 ft | 149 kts | 15° |
| 2026-04-25 14:04 | 50.65686 | 7.87069 | 2489 ft | 145 kts | 15° |
| 2026-04-25 14:04 | 50.66627 | 7.87595 | 2483 ft | 145 kts | 16° |
| 2026-04-25 14:04 | 50.67587 | 7.88139 | 2481 ft | 144 kts | 14° |
| 2026-04-25 14:05 | 50.68524 | 7.88666 | 2484 ft | 144 kts | 15° |
| 2026-04-25 14:05 | 50.69469 | 7.89204 | 2491 ft | 144 kts | 13° |
| 2026-04-25 14:05 | 50.70432 | 7.89750 | 2483 ft | 146 kts | 13° |
| 2026-04-25 14:05 | 50.71378 | 7.90273 | 2480 ft | 141 kts | 14° |
| 2026-04-25 14:06 | 50.72302 | 7.90781 | 2490 ft | 142 kts | 13° |
| 2026-04-25 14:06 | 50.73243 | 7.91301 | 2479 ft | 145 kts | 14° |
| 2026-04-25 14:06 | 50.74169 | 7.91832 | 2485 ft | 140 kts | 14° |
| 2026-04-25 14:06 | 50.75084 | 7.92345 | 2499 ft | 142 kts | 14° |
| 2026-04-25 14:07 | 50.76046 | 7.92854 | 2483 ft | 144 kts | 14° |
| 2026-04-25 14:07 | 50.76975 | 7.93383 | 2483 ft | 143 kts | 15° |
| 2026-04-25 14:07 | 50.77918 | 7.93920 | 2507 ft | 145 kts | 13° |
| 2026-04-25 14:07 | 50.78877 | 7.94445 | 2486 ft | 143 kts | 14° |
| 2026-04-25 14:08 | 50.79808 | 7.94975 | 2483 ft | 142 kts | 15° |
| 2026-04-25 14:08 | 50.80734 | 7.95507 | 2488 ft | 144 kts | 14° |
| 2026-04-25 14:08 | 50.81703 | 7.96038 | 2495 ft | 148 kts | 14° |
| 2026-04-25 14:08 | 50.82673 | 7.96581 | 2495 ft | 147 kts | 15° |
| 2026-04-25 14:09 | 50.83632 | 7.97124 | 2495 ft | 149 kts | 15° |
| 2026-04-25 14:09 | 50.84612 | 7.97683 | 2488 ft | 148 kts | 15° |
| 2026-04-25 14:09 | 50.85575 | 7.98217 | 2486 ft | 147 kts | 15° |
| 2026-04-25 14:09 | 50.85903 | 7.98399 | 2493 ft | 148 kts | 15° |
| 2026-04-25 14:10 | 50.87509 | 7.99292 | 2485 ft | 144 kts | 15° |
| 2026-04-25 14:10 | 50.88469 | 7.99835 | 2494 ft | 148 kts | 15° |
| 2026-04-25 14:10 | 50.89440 | 8.00384 | 2478 ft | 147 kts | 16° |
| 2026-04-25 14:10 | 50.90415 | 8.00933 | 2494 ft | 150 kts | 15° |
| 2026-04-25 14:11 | 50.91416 | 8.01483 | 2497 ft | 157 kts | 14° |
| 2026-04-25 14:11 | 50.92467 | 8.02051 | 2495 ft | 160 kts | 16° |
| 2026-04-25 14:11 | 50.93509 | 8.02616 | 2483 ft | 155 kts | 16° |
| 2026-04-25 14:11 | 50.94521 | 8.03164 | 2480 ft | 152 kts | 15° |
| 2026-04-25 14:12 | 50.95494 | 8.03719 | 2493 ft | 146 kts | 15° |
| 2026-04-25 14:12 | 50.96460 | 8.04273 | 2497 ft | 149 kts | 16° |
| 2026-04-25 14:12 | 50.97436 | 8.04830 | 2551 ft | 150 kts | 14° |
| 2026-04-25 14:12 | 50.98393 | 8.05351 | 2703 ft | 141 kts | 15° |
| 2026-04-25 14:13 | 50.99293 | 8.05861 | 2905 ft | 133 kts | 14° |
| 2026-04-25 14:13 | 51.00156 | 8.06344 | 2990 ft | 135 kts | 14° |
| 2026-04-25 14:13 | 51.01066 | 8.06861 | 2994 ft | 141 kts | 15° |
| 2026-04-25 14:13 | 51.01991 | 8.07391 | 2992 ft | 144 kts | 15° |
| 2026-04-25 14:14 | 51.02949 | 8.07935 | 3021 ft | 148 kts | 14° |
| 2026-04-25 14:14 | 51.03955 | 8.08489 | 2972 ft | 155 kts | 15° |
| 2026-04-25 14:14 | 51.04952 | 8.09050 | 2991 ft | 150 kts | 15° |
| 2026-04-25 14:14 | 51.05923 | 8.09607 | 2987 ft | 150 kts | 15° |
| 2026-04-25 14:15 | 51.06903 | 8.10165 | 2985 ft | 147 kts | 15° |
| 2026-04-25 14:15 | 51.07218 | 8.10345 | 2988 ft | 147 kts | 16° |
| 2026-04-25 14:15 | 51.08875 | 8.11289 | 2997 ft | 151 kts | 14° |
| 2026-04-25 14:15 | 51.09851 | 8.11837 | 2992 ft | 150 kts | 15° |
| 2026-04-25 14:16 | 51.10830 | 8.12392 | 2994 ft | 149 kts | 14° |
| 2026-04-25 14:16 | 51.11814 | 8.12954 | 2979 ft | 147 kts | 14° |
| 2026-04-25 14:16 | 51.12755 | 8.13485 | 2999 ft | 147 kts | 15° |
| 2026-04-25 14:16 | 51.13716 | 8.14037 | 2982 ft | 144 kts | 16° |
| 2026-04-25 14:17 | 51.14670 | 8.14492 | 2998 ft | 143 kts | 8° |
| 2026-04-25 14:17 | 51.15641 | 8.14841 | 2992 ft | 145 kts | 7° |
| 2026-04-25 14:17 | 51.16632 | 8.15177 | 2992 ft | 144 kts | 7° |
| 2026-04-25 14:17 | 51.17600 | 8.15512 | 2998 ft | 134 kts | 7° |
| 2026-04-25 14:18 | 51.18498 | 8.15821 | 2991 ft | 130 kts | 6° |
| 2026-04-25 14:18 | 51.19420 | 8.16086 | 2852 ft | 139 kts | 7° |
| 2026-04-25 14:18 | 51.20360 | 8.16434 | 2750 ft | 142 kts | 7° |
| 2026-04-25 14:18 | 51.21327 | 8.16775 | 2605 ft | 140 kts | 8° |
| 2026-04-25 14:19 | 51.22269 | 8.17124 | 2501 ft | 136 kts | 7° |
| 2026-04-25 14:19 | 51.23162 | 8.17501 | 2488 ft | 130 kts | 12° |
| 2026-04-25 14:19 | 51.24004 | 8.17975 | 2480 ft | 124 kts | 14° |
| 2026-04-25 14:19 | 51.24763 | 8.18406 | 2470 ft | 108 kts | 13° |
| 2026-04-25 14:20 | 51.25396 | 8.18781 | 2564 ft | 89 kts | 15° |
| 2026-04-25 14:20 | 51.25596 | 8.18915 | 2444 ft | 93 kts | 15° |
| 2026-04-25 14:20 | 51.26503 | 8.19720 | 2385 ft | 90 kts | 32° |
| 2026-04-25 14:20 | 51.27035 | 8.20258 | 2323 ft | 93 kts | 22° |
| 2026-04-25 14:21 | 51.27588 | 8.20816 | 2356 ft | 95 kts | 36° |
| 2026-04-25 14:21 | 51.28119 | 8.21451 | 2095 ft | 95 kts | 24° |
| 2026-04-25 14:21 | 51.28648 | 8.22006 | 1904 ft | 88 kts | 22° |
| 2026-04-25 14:21 | 51.29134 | 8.22567 | 1709 ft | 83 kts | 31° |
| 2026-04-25 14:22 | 51.29582 | 8.23076 | 1559 ft | 78 kts | 37° |
| 2026-04-25 14:22 | 51.30003 | 8.23600 | 1452 ft | 72 kts | 33° |
| 2026-04-25 14:22 | 51.30341 | 8.24014 | 1438 ft | 37 kts | 40° |
| 2026-04-25 14:22 | 51.30395 | 8.24065 | 1440 ft | 6 kts | 235° |
| 2026-04-25 14:23 | 51.30372 | 8.24054 | 1440 ft | 6 kts | 110° |
| 2026-04-25 14:23 | 51.30444 | 8.24149 | 1439 ft | 21 kts | 37° |
| 2026-04-25 14:23 | 51.30553 | 8.24246 | 1438 ft | 8 kts | 14° |
| 2026-04-25 14:23 | 51.30571 | 8.24256 | 1438 ft | 0 kts | 31° |